createdAt,value
2023-05-06T00:00:44.875Z,131.60
2023-05-06T00:01:44.915Z,131.57
2023-05-06T00:02:45.271Z,128.81
2023-05-06T00:03:45.205Z,131.56
2023-05-06T00:04:45.071Z,129.14
2023-05-06T00:05:45.064Z,131.56
2023-05-06T00:06:45.145Z,130.83
2023-05-06T00:07:45.212Z,131.81
2023-05-06T00:08:45.258Z,131.42
2023-05-06T00:09:45.281Z,129.51
2023-05-06T00:10:45.324Z,130.65
2023-05-06T00:11:45.378Z,131.09
2023-05-06T00:12:45.698Z,130.75
2023-05-06T00:13:45.507Z,131.68
2023-05-06T00:14:45.575Z,131.14
2023-05-06T00:15:45.621Z,132.44
2023-05-06T00:16:45.767Z,131.38
2023-05-06T00:17:46.229Z,129.84
2023-05-06T00:18:45.807Z,131.05
2023-05-06T00:19:45.826Z,128.72
2023-05-06T00:20:45.929Z,131.32
2023-05-06T00:21:45.989Z,129.94
2023-05-06T00:22:46.028Z,130.88
2023-05-06T00:23:46.079Z,132.22
2023-05-06T00:24:46.145Z,130.30
2023-05-06T00:25:46.218Z,131.51
2023-05-06T00:26:46.261Z,131.05
2023-05-06T00:27:46.301Z,131.07
2023-05-06T00:28:46.388Z,129.02
2023-05-06T00:29:46.437Z,131.23
2023-05-06T00:30:46.482Z,131.12
2023-05-06T00:31:46.567Z,131.19
2023-05-06T00:32:46.715Z,131.20
2023-05-06T00:33:46.671Z,129.71
2023-05-06T00:34:46.797Z,131.70
2023-05-06T00:35:46.786Z,130.71
2023-05-06T00:36:46.823Z,130.76
2023-05-06T00:37:46.886Z,129.81
2023-05-06T00:38:46.942Z,131.24
2023-05-06T00:39:47.028Z,127.77
2023-05-06T00:40:47.018Z,130.46
2023-05-06T00:41:47.083Z,129.14
2023-05-06T00:42:47.182Z,130.65
2023-05-06T00:43:47.229Z,129.72
2023-05-06T00:44:47.285Z,128.78
2023-05-06T00:45:47.346Z,130.74
2023-05-06T00:46:47.385Z,130.97
2023-05-06T00:47:47.466Z,132.29
2023-05-06T00:48:47.461Z,130.67
2023-05-06T00:49:47.530Z,129.30
2023-05-06T00:50:47.722Z,131.26
2023-05-06T00:51:47.614Z,128.65
2023-05-06T00:52:47.686Z,130.51
2023-05-06T00:53:47.701Z,129.71
2023-05-06T00:54:47.747Z,128.65
2023-05-06T00:55:47.760Z,128.87
2023-05-06T00:56:47.848Z,130.73
2023-05-06T00:57:47.890Z,130.28
2023-05-06T00:58:47.937Z,128.56
2023-05-06T00:59:47.974Z,130.81
2023-05-06T01:00:48.045Z,129.99
2023-05-06T01:01:48.070Z,130.26
2023-05-06T01:02:48.478Z,131.59
2023-05-06T01:03:48.240Z,129.77
2023-05-06T01:04:48.231Z,131.33
2023-05-06T01:05:48.281Z,130.83
2023-05-06T01:06:48.366Z,129.63
2023-05-06T01:07:48.393Z,129.44
2023-05-06T01:08:48.444Z,129.24
2023-05-06T01:09:48.526Z,130.29
2023-05-06T01:10:48.576Z,128.98
2023-05-06T01:11:48.566Z,129.80
2023-05-06T01:12:48.658Z,130.36
2023-05-06T01:13:48.688Z,128.74
2023-05-06T01:14:48.692Z,129.20
2023-05-06T01:15:48.738Z,127.66
2023-05-06T01:16:48.874Z,131.85
2023-05-06T01:17:48.879Z,130.97
2023-05-06T01:18:48.888Z,131.43
2023-05-06T01:19:48.934Z,130.22
2023-05-06T01:20:48.938Z,129.48
2023-05-06T01:21:48.995Z,130.31
2023-05-06T01:22:48.998Z,128.81
2023-05-06T01:23:49.024Z,129.76
2023-05-06T01:24:49.086Z,128.80
2023-05-06T01:25:49.120Z,128.73
2023-05-06T01:26:49.103Z,128.87
2023-05-06T01:27:49.123Z,130.14
2023-05-06T01:28:49.178Z,127.03
2023-05-06T01:29:49.180Z,129.79
2023-05-06T01:30:49.239Z,128.61
2023-05-06T01:31:49.228Z,128.23
2023-05-06T01:32:49.285Z,128.87
2023-05-06T01:33:49.294Z,128.51
2023-05-06T01:34:49.361Z,130.07
2023-05-06T01:35:49.387Z,126.81
2023-05-06T01:36:49.437Z,128.97
2023-05-06T01:37:49.476Z,125.36
2023-05-06T01:38:49.603Z,130.42
2023-05-06T01:39:49.491Z,129.31
2023-05-06T01:40:49.532Z,128.42
2023-05-06T01:41:49.569Z,130.37
2023-05-06T01:42:49.759Z,128.07
2023-05-06T01:43:49.651Z,129.98
2023-05-06T01:44:49.690Z,128.62
2023-05-06T01:45:49.689Z,129.34
2023-05-06T01:46:49.801Z,128.86
2023-05-06T01:47:49.806Z,130.10
2023-05-06T01:48:49.797Z,128.62
2023-05-06T01:49:49.877Z,127.71
2023-05-06T01:50:49.846Z,128.03
2023-05-06T01:51:49.938Z,129.67
2023-05-06T01:52:49.906Z,126.83
2023-05-06T01:53:49.929Z,127.98
2023-05-06T01:54:50.062Z,128.40
2023-05-06T01:55:49.989Z,128.00
2023-05-06T01:56:50.020Z,129.29
2023-05-06T01:57:50.062Z,129.41
2023-05-06T01:58:50.066Z,127.93
2023-05-06T01:59:50.124Z,128.22
2023-05-06T02:00:50.145Z,128.11
2023-05-06T02:01:50.217Z,128.22
2023-05-06T02:02:50.251Z,127.88
2023-05-06T02:03:50.273Z,128.38
2023-05-06T02:04:50.194Z,128.45
2023-05-06T02:05:50.224Z,130.25
2023-05-06T02:06:50.217Z,128.26
2023-05-06T02:07:50.213Z,128.47
2023-05-06T02:08:50.269Z,129.56
2023-05-06T02:09:50.280Z,128.53
2023-05-06T02:10:50.288Z,127.07
2023-05-06T02:11:50.279Z,128.05
2023-05-06T02:12:50.352Z,126.94
2023-05-06T02:13:50.360Z,128.97
2023-05-06T02:14:50.331Z,126.60
2023-05-06T02:15:50.388Z,129.10
2023-05-06T02:16:50.401Z,127.46
2023-05-06T02:17:50.516Z,127.88
2023-05-06T02:18:50.438Z,128.56
2023-05-06T02:19:50.464Z,128.57
2023-05-06T02:20:50.462Z,128.60
2023-05-06T02:21:50.509Z,127.11
2023-05-06T02:22:50.730Z,127.57
2023-05-06T02:23:50.549Z,128.50
2023-05-06T02:24:50.586Z,125.63
2023-05-06T02:25:50.555Z,128.57
2023-05-06T02:26:50.597Z,128.71
2023-05-06T02:27:50.602Z,127.83
2023-05-06T02:28:50.621Z,128.99
2023-05-06T02:29:50.588Z,126.62
2023-05-06T02:30:50.643Z,125.49
2023-05-06T02:31:50.693Z,130.45
2023-05-06T02:32:50.801Z,129.18
2023-05-06T02:33:50.698Z,127.80
2023-05-06T02:34:50.699Z,127.63
2023-05-06T02:35:50.725Z,127.19
2023-05-06T02:36:50.716Z,127.53
2023-05-06T02:37:50.725Z,128.10
2023-05-06T02:38:50.727Z,128.14
2023-05-06T02:39:50.747Z,127.86
2023-05-06T02:40:50.777Z,126.70
2023-05-06T02:41:50.785Z,127.94
2023-05-06T02:42:50.894Z,128.11
2023-05-06T02:43:50.760Z,125.62
2023-05-06T02:44:50.788Z,127.64
2023-05-06T02:45:50.791Z,127.89
2023-05-06T02:46:50.796Z,129.55
2023-05-06T02:47:50.785Z,128.35
2023-05-06T02:48:51.253Z,126.79
2023-05-06T02:49:50.776Z,125.12
2023-05-06T02:50:50.756Z,127.73
2023-05-06T02:51:50.761Z,126.83
2023-05-06T02:52:50.776Z,127.61
2023-05-06T02:53:50.790Z,129.34
2023-05-06T02:54:50.736Z,127.93
2023-05-06T02:55:50.764Z,127.00
2023-05-06T02:56:50.769Z,128.04
2023-05-06T02:57:50.755Z,128.59
2023-05-06T02:58:50.856Z,126.93
2023-05-06T02:59:50.796Z,127.80
2023-05-06T03:00:50.867Z,128.49
2023-05-06T03:01:50.837Z,126.60
2023-05-06T03:02:50.888Z,128.24
2023-05-06T03:03:50.888Z,127.30
2023-05-06T03:04:50.870Z,126.92
2023-05-06T03:05:50.872Z,125.43
2023-05-06T03:06:50.853Z,126.59
2023-05-06T03:07:50.845Z,125.72
2023-05-06T03:08:50.858Z,127.94
2023-05-06T03:09:50.878Z,126.04
2023-05-06T03:10:50.909Z,126.49
2023-05-06T03:11:50.898Z,126.37
2023-05-06T03:12:50.938Z,126.96
2023-05-06T03:13:50.884Z,126.16
2023-05-06T03:14:51.014Z,126.63
2023-05-06T03:15:50.940Z,126.29
2023-05-06T03:16:50.973Z,128.18
2023-05-06T03:17:50.982Z,126.77
2023-05-06T03:18:50.902Z,125.87
2023-05-06T03:19:50.909Z,126.70
2023-05-06T03:20:50.906Z,126.41
2023-05-06T03:21:50.926Z,126.26
2023-05-06T03:22:50.943Z,128.94
2023-05-06T03:23:50.915Z,128.03
2023-05-06T03:24:50.934Z,128.31
2023-05-06T03:25:50.949Z,126.52
2023-05-06T03:26:50.951Z,126.19
2023-05-06T03:27:50.945Z,127.40
2023-05-06T03:28:50.983Z,125.55
2023-05-06T03:29:51.018Z,125.28
2023-05-06T03:30:51.205Z,126.71
2023-05-06T03:31:51.084Z,124.48
2023-05-06T03:32:51.036Z,126.43
2023-05-06T03:33:51.065Z,127.24
2023-05-06T03:34:51.050Z,125.40
2023-05-06T03:35:51.048Z,126.18
2023-05-06T03:36:51.093Z,125.17
2023-05-06T03:37:51.114Z,126.19
2023-05-06T03:38:51.296Z,127.35
2023-05-06T03:39:51.181Z,128.52
2023-05-06T03:40:51.166Z,126.26
2023-05-06T03:41:51.226Z,126.92
2023-05-06T03:42:51.226Z,126.99
2023-05-06T03:43:51.247Z,128.17
2023-05-06T03:44:51.293Z,128.43
2023-05-06T03:45:51.345Z,125.51
2023-05-06T03:46:51.385Z,126.90
2023-05-06T03:47:51.365Z,126.12
2023-05-06T03:48:51.407Z,122.65
2023-05-06T03:49:51.376Z,125.21
2023-05-06T03:50:51.412Z,128.60
2023-05-06T03:51:51.392Z,125.24
2023-05-06T03:52:51.396Z,126.38
2023-05-06T03:53:53.523Z,127.26
2023-05-06T03:54:51.427Z,127.73
2023-05-06T03:55:51.420Z,125.60
2023-05-06T03:56:51.391Z,126.07
2023-05-06T03:57:51.388Z,125.44
2023-05-06T03:58:51.363Z,129.40
2023-05-06T03:59:51.371Z,126.27
2023-05-06T04:00:51.351Z,125.41
2023-05-06T04:01:51.457Z,127.74
2023-05-06T04:02:51.419Z,126.17
2023-05-06T04:03:51.388Z,126.93
2023-05-06T04:04:51.356Z,126.24
2023-05-06T04:05:51.347Z,124.88
2023-05-06T04:06:51.327Z,127.16
2023-05-06T04:07:51.333Z,124.16
2023-05-06T04:08:51.793Z,127.12
2023-05-06T04:09:51.318Z,125.31
2023-05-06T04:10:51.295Z,125.95
2023-05-06T04:11:51.285Z,125.22
2023-05-06T04:12:51.285Z,124.82
2023-05-06T04:13:51.351Z,123.69
2023-05-06T04:14:51.292Z,123.62
2023-05-06T04:15:51.306Z,125.81
2023-05-06T04:16:51.258Z,123.36
2023-05-06T04:17:51.262Z,123.11
2023-05-06T04:18:51.276Z,124.90
2023-05-06T04:19:51.263Z,125.22
2023-05-06T04:20:51.248Z,123.68
2023-05-06T04:21:51.228Z,126.53
2023-05-06T04:22:51.194Z,123.47
2023-05-06T04:23:51.204Z,124.82
2023-05-06T04:24:51.206Z,125.40
2023-05-06T04:25:51.218Z,124.15
2023-05-06T04:26:51.228Z,123.93
2023-05-06T04:27:51.159Z,126.04
2023-05-06T04:28:51.205Z,125.51
2023-05-06T04:29:51.192Z,124.61
2023-05-06T04:30:51.145Z,122.29
2023-05-06T04:31:51.171Z,124.07
2023-05-06T04:32:51.256Z,125.33
2023-05-06T04:33:51.180Z,124.91
2023-05-06T04:34:51.134Z,124.50
2023-05-06T04:35:51.112Z,124.01
2023-05-06T04:36:51.144Z,123.70
2023-05-06T04:37:51.120Z,123.48
2023-05-06T04:38:51.118Z,122.95
2023-05-06T04:39:51.092Z,125.06
2023-05-06T04:40:51.094Z,122.93
2023-05-06T04:41:51.097Z,126.53
2023-05-06T04:42:51.109Z,122.68
2023-05-06T04:43:51.311Z,123.96
2023-05-06T04:44:51.072Z,124.46
2023-05-06T04:45:51.089Z,124.75
2023-05-06T04:46:51.069Z,123.41
2023-05-06T04:47:51.100Z,123.61
2023-05-06T04:48:51.051Z,124.50
2023-05-06T04:49:51.029Z,123.69
2023-05-06T04:50:51.133Z,126.97
2023-05-06T04:51:51.021Z,124.37
2023-05-06T04:52:51.021Z,124.91
2023-05-06T04:53:51.004Z,122.13
2023-05-06T04:54:51.022Z,122.80
2023-05-06T04:55:50.984Z,123.90
2023-05-06T04:56:50.985Z,122.64
2023-05-06T04:57:50.981Z,121.84
2023-05-06T04:58:50.977Z,123.64
2023-05-06T04:59:51.009Z,123.66
2023-05-06T05:00:50.951Z,123.92
2023-05-06T05:01:51.019Z,122.44
2023-05-06T05:02:50.972Z,123.24
2023-05-06T05:03:50.981Z,122.46
2023-05-06T05:04:50.908Z,124.04
2023-05-06T05:05:50.920Z,121.32
2023-05-06T05:06:50.975Z,123.29
2023-05-06T05:07:50.917Z,123.39
2023-05-06T05:08:50.909Z,122.40
2023-05-06T05:09:50.889Z,122.25
2023-05-06T05:10:50.888Z,124.74
2023-05-06T05:11:50.885Z,122.09
2023-05-06T05:12:50.873Z,124.79
2023-05-06T05:13:50.905Z,122.36
2023-05-06T05:14:50.864Z,122.17
2023-05-06T05:15:50.881Z,123.49
2023-05-06T05:16:50.896Z,123.79
2023-05-06T05:17:50.913Z,124.34
2023-05-06T05:18:50.843Z,121.79
2023-05-06T05:19:50.846Z,123.58
2023-05-06T05:20:50.854Z,124.76
2023-05-06T05:21:50.830Z,121.10
2023-05-06T05:22:50.934Z,122.21
2023-05-06T05:23:50.826Z,121.04
2023-05-06T05:24:50.794Z,121.56
2023-05-06T05:25:50.847Z,122.85
2023-05-06T05:26:50.817Z,121.85
2023-05-06T05:27:50.765Z,121.05
2023-05-06T05:28:50.844Z,122.46
2023-05-06T05:29:50.796Z,122.64
2023-05-06T05:30:50.773Z,122.45
2023-05-06T05:31:50.761Z,123.68
2023-05-06T05:32:50.847Z,122.84
2023-05-06T05:33:50.786Z,120.60
2023-05-06T05:34:50.749Z,122.36
2023-05-06T05:35:50.729Z,124.53
2023-05-06T05:36:50.746Z,120.40
2023-05-06T05:37:50.701Z,121.59
2023-05-06T05:38:50.720Z,121.92
2023-05-06T05:39:50.727Z,122.54
2023-05-06T05:40:50.689Z,121.39
2023-05-06T05:41:50.722Z,119.63
2023-05-06T05:42:50.700Z,123.55
2023-05-06T05:43:50.693Z,122.09
2023-05-06T05:44:50.673Z,120.16
2023-05-06T05:45:50.661Z,120.68
2023-05-06T05:46:50.732Z,118.80
2023-05-06T05:47:50.748Z,119.14
2023-05-06T05:48:50.711Z,121.75
2023-05-06T05:49:50.628Z,120.51
2023-05-06T05:50:50.629Z,120.45
2023-05-06T05:51:50.649Z,120.36
2023-05-06T05:52:50.606Z,123.62
2023-05-06T05:53:50.627Z,121.75
2023-05-06T05:54:50.709Z,119.63
2023-05-06T05:55:50.613Z,120.50
2023-05-06T05:56:50.626Z,121.20
2023-05-06T05:57:50.591Z,120.82
2023-05-06T05:58:50.589Z,121.01
2023-05-06T05:59:50.595Z,121.97
2023-05-06T06:00:50.556Z,120.73
2023-05-06T06:01:50.563Z,121.52
2023-05-06T06:02:50.648Z,121.71
2023-05-06T06:03:50.739Z,120.55
2023-05-06T06:04:50.586Z,119.16
2023-05-06T06:05:50.549Z,121.89
2023-05-06T06:06:50.494Z,119.01
2023-05-06T06:07:50.505Z,121.56
2023-05-06T06:08:50.516Z,120.85
2023-05-06T06:09:50.523Z,121.78
2023-05-06T06:10:50.566Z,121.56
2023-05-06T06:11:50.488Z,121.01
2023-05-06T06:12:50.544Z,118.08
2023-05-06T06:13:50.487Z,119.12
2023-05-06T06:14:50.446Z,121.92
2023-05-06T06:15:50.480Z,119.52
2023-05-06T06:16:50.458Z,120.82
2023-05-06T06:17:50.510Z,121.23
2023-05-06T06:18:50.480Z,118.92
2023-05-06T06:19:50.446Z,119.77
2023-05-06T06:20:52.973Z,120.84
2023-05-06T06:21:50.451Z,123.59
2023-05-06T06:22:50.422Z,122.60
2023-05-06T06:23:50.373Z,120.94
2023-05-06T06:24:50.414Z,118.25
2023-05-06T06:25:50.396Z,120.85
2023-05-06T06:26:50.480Z,119.52
2023-05-06T06:27:50.372Z,120.38
2023-05-06T06:28:50.393Z,120.86
2023-05-06T06:29:50.376Z,121.09
2023-05-06T06:30:50.374Z,119.35
2023-05-06T06:31:50.341Z,120.64
2023-05-06T06:32:50.377Z,119.35
2023-05-06T06:33:50.343Z,121.58
2023-05-06T06:34:50.319Z,120.74
2023-05-06T06:35:50.342Z,119.52
2023-05-06T06:36:50.323Z,120.50
2023-05-06T06:37:50.298Z,121.15
2023-05-06T06:38:50.286Z,120.02
2023-05-06T06:39:50.293Z,118.47
2023-05-06T06:40:50.299Z,118.63
2023-05-06T06:41:50.275Z,117.23
2023-05-06T06:42:50.327Z,119.06
2023-05-06T06:43:50.238Z,118.12
2023-05-06T06:44:50.251Z,120.27
2023-05-06T06:45:50.328Z,118.36
2023-05-06T06:46:50.238Z,119.45
2023-05-06T06:47:50.271Z,119.26
2023-05-06T06:48:50.355Z,120.35
2023-05-06T06:49:50.210Z,121.76
2023-05-06T06:50:50.240Z,121.67
2023-05-06T06:51:50.187Z,121.31
2023-05-06T06:52:50.176Z,120.11
2023-05-06T06:53:50.282Z,118.33
2023-05-06T06:54:50.226Z,119.43
2023-05-06T06:55:50.223Z,121.12
2023-05-06T06:56:50.240Z,118.86
2023-05-06T06:57:50.181Z,117.06
2023-05-06T06:58:52.422Z,120.19
2023-05-06T06:59:50.158Z,120.45
2023-05-06T07:00:50.191Z,120.47
2023-05-06T07:01:50.134Z,120.52
2023-05-06T07:02:50.171Z,120.32
2023-05-06T07:03:50.161Z,119.52
2023-05-06T07:04:50.128Z,122.06
2023-05-06T07:05:50.132Z,119.09
2023-05-06T07:06:50.105Z,120.11
2023-05-06T07:07:50.077Z,119.89
2023-05-06T07:08:50.087Z,119.74
2023-05-06T07:09:50.117Z,115.22
2023-05-06T07:10:50.087Z,118.76
2023-05-06T07:11:50.057Z,119.20
2023-05-06T07:12:50.129Z,118.06
2023-05-06T07:13:50.055Z,118.38
2023-05-06T07:14:50.120Z,116.87
2023-05-06T07:15:50.062Z,118.61
2023-05-06T07:16:51.573Z,119.17
2023-05-06T07:17:50.073Z,122.27
2023-05-06T07:18:50.016Z,120.32
2023-05-06T07:19:50.035Z,118.94
2023-05-06T07:20:50.034Z,117.44
2023-05-06T07:21:50.024Z,119.23
2023-05-06T07:22:50.010Z,117.03
2023-05-06T07:23:49.991Z,118.43
2023-05-06T07:24:49.956Z,120.16
2023-05-06T07:25:49.987Z,118.58
2023-05-06T07:26:49.978Z,118.45
2023-05-06T07:27:49.974Z,117.15
2023-05-06T07:28:49.960Z,117.79
2023-05-06T07:29:50.051Z,119.42
2023-05-06T07:30:50.095Z,116.75
2023-05-06T07:31:49.950Z,117.56
2023-05-06T07:32:50.003Z,116.69
2023-05-06T07:33:49.936Z,116.44
2023-05-06T07:34:49.915Z,119.44
2023-05-06T07:35:49.936Z,119.18
2023-05-06T07:36:49.907Z,118.04
2023-05-06T07:37:49.883Z,116.17
2023-05-06T07:38:49.911Z,119.16
2023-05-06T07:39:49.993Z,118.07
2023-05-06T07:40:50.045Z,117.50
2023-05-06T07:41:50.042Z,116.42
2023-05-06T07:42:50.106Z,116.16
2023-05-06T07:43:50.128Z,117.22
2023-05-06T07:44:50.171Z,112.75
2023-05-06T07:45:50.277Z,116.56
2023-05-06T07:46:50.388Z,115.28
2023-05-06T07:47:50.397Z,114.85
2023-05-06T07:48:50.374Z,116.10
2023-05-06T07:49:50.397Z,116.54
2023-05-06T07:50:50.456Z,115.16
2023-05-06T07:51:50.567Z,115.12
2023-05-06T07:52:50.606Z,116.19
2023-05-06T07:53:50.649Z,114.86
2023-05-06T07:54:50.680Z,114.44
2023-05-06T07:55:50.746Z,114.61
2023-05-06T07:56:50.814Z,113.33
2023-05-06T07:57:50.868Z,113.64
2023-05-06T07:58:50.925Z,113.19
2023-05-06T07:59:50.971Z,115.95
2023-05-06T08:00:51.031Z,114.46
2023-05-06T08:01:51.089Z,113.94
2023-05-06T08:02:51.293Z,115.67
2023-05-06T08:03:51.306Z,117.63
2023-05-06T08:04:51.865Z,115.75
2023-05-06T08:05:51.309Z,117.19
2023-05-06T08:06:51.351Z,114.72
2023-05-06T08:07:51.403Z,114.37
2023-05-06T08:08:51.498Z,115.09
2023-05-06T08:09:51.529Z,118.92
2023-05-06T08:10:51.590Z,117.03
2023-05-06T08:11:51.666Z,117.01
2023-05-06T08:12:51.759Z,116.23
2023-05-06T08:13:51.730Z,117.28
2023-05-06T08:14:51.806Z,113.34
2023-05-06T08:15:51.858Z,114.70
2023-05-06T08:16:51.925Z,114.00
2023-05-06T08:17:51.974Z,113.49
2023-05-06T08:18:52.104Z,116.65
2023-05-06T08:19:52.088Z,113.71
2023-05-06T08:20:52.147Z,116.00
2023-05-06T08:21:52.194Z,115.29
2023-05-06T08:22:52.291Z,112.68
2023-05-06T08:23:52.335Z,115.92
2023-05-06T08:24:52.396Z,116.68
2023-05-06T08:25:52.461Z,113.50
2023-05-06T08:26:52.535Z,114.63
2023-05-06T08:27:52.617Z,114.72
2023-05-06T08:28:52.654Z,116.52
2023-05-06T08:29:52.737Z,114.60
2023-05-06T08:30:52.755Z,112.18
2023-05-06T08:31:52.871Z,112.55
2023-05-06T08:32:52.918Z,112.74
2023-05-06T08:33:54.448Z,114.44
2023-05-06T08:34:53.036Z,114.75
2023-05-06T08:35:53.111Z,113.93
2023-05-06T08:36:53.164Z,111.83
2023-05-06T08:37:53.244Z,115.93
2023-05-06T08:38:53.281Z,111.62
2023-05-06T08:39:53.340Z,117.58
2023-05-06T08:40:53.423Z,113.80
2023-05-06T08:41:53.454Z,111.74
2023-05-06T08:42:53.506Z,114.34
2023-05-06T08:43:53.965Z,115.84
2023-05-06T08:44:53.657Z,114.92
2023-05-06T08:45:53.749Z,114.83
2023-05-06T08:46:53.784Z,115.77
2023-05-06T08:47:53.897Z,112.86
2023-05-06T08:48:53.915Z,116.18
2023-05-06T08:49:53.998Z,114.81
2023-05-06T08:50:54.147Z,115.82
2023-05-06T08:51:54.127Z,112.93
2023-05-06T08:52:54.161Z,117.19
2023-05-06T08:53:54.233Z,113.33
2023-05-06T08:54:54.279Z,118.00
2023-05-06T08:55:54.390Z,112.76
2023-05-06T08:56:54.420Z,114.50
2023-05-06T08:57:54.502Z,116.50
2023-05-06T08:58:54.578Z,114.57
2023-05-06T08:59:54.617Z,113.43
2023-05-06T09:00:54.662Z,111.83
2023-05-06T09:01:54.765Z,117.33
2023-05-06T09:02:54.868Z,113.98
2023-05-06T09:03:54.875Z,115.51
2023-05-06T09:04:54.915Z,111.67
2023-05-06T09:05:55.058Z,109.94
2023-05-06T09:06:55.182Z,115.77
2023-05-06T09:07:55.090Z,111.34
2023-05-06T09:08:55.202Z,116.05
2023-05-06T09:09:55.223Z,113.66
2023-05-06T09:10:55.305Z,111.15
2023-05-06T09:11:55.381Z,114.94
2023-05-06T09:12:55.440Z,114.44
2023-05-06T09:13:55.507Z,112.95
2023-05-06T09:14:55.530Z,113.57
2023-05-06T09:15:55.613Z,112.23
2023-05-06T09:16:55.752Z,112.80
2023-05-06T09:17:55.799Z,112.63
2023-05-06T09:18:55.847Z,113.10
2023-05-06T09:19:55.889Z,116.06
2023-05-06T09:20:55.953Z,112.85
2023-05-06T09:21:55.993Z,112.50
2023-05-06T09:22:56.131Z,114.93
2023-05-06T09:23:56.127Z,113.85
2023-05-06T09:24:56.193Z,114.54
2023-05-06T09:25:56.242Z,110.79
2023-05-06T09:26:56.317Z,113.52
2023-05-06T09:27:56.348Z,111.47
2023-05-06T09:28:56.416Z,111.99
2023-05-06T09:29:56.509Z,112.21
2023-05-06T09:30:56.620Z,113.90
2023-05-06T09:31:56.627Z,111.62
2023-05-06T09:32:56.724Z,112.36
2023-05-06T09:33:56.781Z,113.15
2023-05-06T09:34:56.802Z,113.76
2023-05-06T09:35:56.850Z,115.91
2023-05-06T09:36:56.960Z,114.29
2023-05-06T09:37:57.018Z,114.45
2023-05-06T09:38:57.521Z,114.58
2023-05-06T09:39:57.134Z,113.52
2023-05-06T09:40:57.231Z,114.59
2023-05-06T09:41:57.234Z,114.08
2023-05-06T09:42:57.353Z,113.95
2023-05-06T09:43:57.398Z,114.11
2023-05-06T09:44:59.208Z,116.12
2023-05-06T09:45:57.452Z,117.28
2023-05-06T09:46:57.438Z,115.37
2023-05-06T09:47:57.447Z,111.64
2023-05-06T09:48:57.422Z,115.70
2023-05-06T09:49:57.393Z,115.52
2023-05-06T09:50:59.490Z,113.57
2023-05-06T09:51:57.402Z,113.75
2023-05-06T09:52:57.427Z,113.84
2023-05-06T09:53:57.416Z,113.72
2023-05-06T09:54:57.520Z,113.75
2023-05-06T09:55:57.356Z,113.17
2023-05-06T09:56:59.245Z,115.50
2023-05-06T09:57:57.341Z,115.57
2023-05-06T09:58:57.352Z,115.58
2023-05-06T09:59:57.309Z,115.54
2023-05-06T10:00:57.351Z,111.96
2023-05-06T10:01:57.374Z,112.12
2023-05-06T10:02:58.051Z,115.24
2023-05-06T10:03:57.480Z,113.92
2023-05-06T10:04:57.586Z,113.15
2023-05-06T10:05:57.301Z,114.42
2023-05-06T10:06:57.287Z,113.71
2023-05-06T10:07:57.292Z,113.42
2023-05-06T10:08:57.285Z,111.50
2023-05-06T10:09:57.267Z,115.86
2023-05-06T10:10:57.284Z,114.31
2023-05-06T10:11:57.265Z,112.31
2023-05-06T10:12:57.277Z,116.86
2023-05-06T10:13:57.230Z,114.11
2023-05-06T10:14:57.205Z,113.37
2023-05-06T10:15:57.276Z,113.57
2023-05-06T10:16:57.198Z,111.36
2023-05-06T10:17:57.251Z,113.98
2023-05-06T10:18:57.189Z,112.82
2023-05-06T10:19:57.189Z,116.15
2023-05-06T10:20:57.159Z,112.74
2023-05-06T10:21:57.174Z,113.25
2023-05-06T10:22:57.168Z,110.38
2023-05-06T10:23:57.175Z,114.01
2023-05-06T10:24:57.152Z,111.86
2023-05-06T10:25:57.151Z,112.55
2023-05-06T10:26:57.264Z,113.86
2023-05-06T10:27:57.201Z,113.57
2023-05-06T10:28:57.161Z,112.83
2023-05-06T10:29:57.208Z,114.83
2023-05-06T10:30:57.244Z,110.50
2023-05-06T10:31:57.430Z,112.34
2023-05-06T10:32:57.501Z,110.35
2023-05-06T10:33:57.477Z,112.06
2023-05-06T10:34:57.542Z,112.51
2023-05-06T10:35:57.559Z,111.33
2023-05-06T10:36:57.838Z,112.09
2023-05-06T10:37:57.687Z,113.23
2023-05-06T10:38:57.979Z,110.83
2023-05-06T10:39:57.846Z,113.89
2023-05-06T10:40:57.894Z,109.07
2023-05-06T10:41:57.956Z,113.45
2023-05-06T10:42:58.073Z,117.15
2023-05-06T10:43:58.506Z,114.49
2023-05-06T10:44:58.164Z,110.35
2023-05-06T10:45:58.266Z,111.32
2023-05-06T10:46:58.285Z,113.87
2023-05-06T10:47:58.398Z,113.59
2023-05-06T10:48:58.364Z,108.17
2023-05-06T10:49:58.461Z,111.92
2023-05-06T10:50:58.526Z,114.97
2023-05-06T10:51:58.574Z,112.96
2023-05-06T10:52:58.646Z,113.22
2023-05-06T10:53:58.712Z,109.05
2023-05-06T10:54:58.747Z,112.42
2023-05-06T10:55:58.822Z,111.30
2023-05-06T10:56:58.933Z,112.26
2023-05-06T10:57:58.965Z,111.10
2023-05-06T10:58:59.101Z,113.76
2023-05-06T10:59:59.132Z,109.07
2023-05-06T11:00:59.180Z,112.23
2023-05-06T11:01:59.265Z,114.10
2023-05-06T11:02:59.320Z,111.32
2023-05-06T11:03:59.464Z,114.64
2023-05-06T11:04:59.453Z,114.79
2023-05-06T11:05:59.504Z,110.14
2023-05-06T11:06:59.513Z,113.40
2023-05-06T11:07:59.577Z,112.21
2023-05-06T11:08:59.652Z,111.45
2023-05-06T11:09:59.721Z,110.37
2023-05-06T11:10:59.776Z,115.55
2023-05-06T11:11:59.849Z,114.49
2023-05-06T11:13:00.007Z,109.67
2023-05-06T11:13:59.954Z,109.56
2023-05-06T11:15:00.037Z,113.90
2023-05-06T11:16:00.144Z,115.63
2023-05-06T11:17:00.293Z,115.48
2023-05-06T11:18:00.279Z,114.37
2023-05-06T11:19:00.271Z,111.03
2023-05-06T11:20:00.369Z,112.17
2023-05-06T11:21:00.425Z,110.96
2023-05-06T11:22:00.463Z,108.55
2023-05-06T11:23:00.543Z,111.12
2023-05-06T11:24:00.990Z,112.69
2023-05-06T11:25:00.664Z,108.29
2023-05-06T11:26:00.688Z,111.96
2023-05-06T11:27:00.804Z,108.63
2023-05-06T11:28:00.870Z,111.70
2023-05-06T11:29:00.913Z,113.39
2023-05-06T11:30:00.988Z,112.03
2023-05-06T11:31:01.131Z,113.70
2023-05-06T11:32:01.077Z,111.08
2023-05-06T11:33:02.747Z,112.40
2023-05-06T11:34:01.162Z,110.33
2023-05-06T11:35:01.159Z,114.05
2023-05-06T11:36:01.137Z,114.32
2023-05-06T11:37:01.114Z,109.14
2023-05-06T11:38:01.161Z,109.07
2023-05-06T11:39:02.877Z,110.33
2023-05-06T11:40:01.114Z,110.49
2023-05-06T11:41:01.103Z,110.63
2023-05-06T11:42:01.097Z,111.33
2023-05-06T11:43:01.074Z,112.70
2023-05-06T11:44:01.089Z,115.30
2023-05-06T11:45:01.071Z,108.24
2023-05-06T11:46:01.070Z,109.43
2023-05-06T11:47:01.060Z,112.73
2023-05-06T11:48:01.091Z,105.73
2023-05-06T11:49:01.058Z,112.86
2023-05-06T11:50:01.033Z,113.56
2023-05-06T11:51:01.051Z,111.55
2023-05-06T11:52:01.019Z,111.08
2023-05-06T11:53:01.011Z,111.17
2023-05-06T11:54:01.016Z,112.52
2023-05-06T11:55:01.027Z,111.07
2023-05-06T11:56:00.989Z,109.72
2023-05-06T11:57:00.997Z,109.06
2023-05-06T11:58:00.987Z,108.80
2023-05-06T11:59:01.008Z,109.74
2023-05-06T12:00:00.968Z,111.05
2023-05-06T12:01:00.971Z,109.93
2023-05-06T12:02:00.937Z,109.89
2023-05-06T12:03:01.053Z,111.57
2023-05-06T12:04:01.075Z,108.61
2023-05-06T12:05:00.974Z,109.76
2023-05-06T12:06:00.939Z,112.49
2023-05-06T12:07:00.916Z,110.72
2023-05-06T12:08:00.907Z,114.08
2023-05-06T12:09:01.489Z,114.69
2023-05-06T12:10:00.888Z,114.72
2023-05-06T12:11:00.921Z,112.86
2023-05-06T12:12:00.885Z,112.74
2023-05-06T12:13:00.909Z,111.79
2023-05-06T12:14:00.893Z,111.68
2023-05-06T12:15:00.870Z,111.95
2023-05-06T12:16:00.888Z,111.14
2023-05-06T12:17:00.864Z,112.86
2023-05-06T12:18:00.950Z,109.93
2023-05-06T12:19:01.012Z,111.58
2023-05-06T12:20:01.046Z,110.32
2023-05-06T12:21:01.094Z,111.67
2023-05-06T12:22:01.133Z,107.16
2023-05-06T12:23:01.195Z,113.09
2023-05-06T12:24:01.320Z,113.74
2023-05-06T12:25:01.310Z,110.06
2023-05-06T12:26:01.390Z,111.89
2023-05-06T12:27:01.423Z,112.56
2023-05-06T12:28:01.455Z,112.78
2023-05-06T12:29:01.545Z,108.85